Merville, Canada
Current Conditions -  °F | °C
As of 2:00 PM on Saturday 20 Dec 2014 (Local Time) from CYQQ Reporting Station
Light Rain Light Rain  
Wind Chill: 36°   Ceiling: 1200
Heat Index: 45°   Visibility: 12mi
Dew Point: 45°   Wind: 24mph
Humidity: 100%   Direction: 150°SSE
Pressure: 29.36"   Gusts: 40mph
Location:  49.78°N, 125.05°W
Report Text: CYQQ 202200Z 15021G35KT 12SM -RA BKN012 OVC018 07/07 A2936 RMK SF5SC3 SLP943
Loading
Personal Weather Stations






























Interactive Weather Map New forecast layout! Learn more

10-Day Weather Forecast

Advertisements
Track Severe Weather on mobile